sensor_id;sensor_type;location;lat;lon;timestamp;pressure;altitude;pressure_sealevel;temperature;humidity
58761;BME280;44529;47.464;19.014;2023-02-17T00:02:35;101168.03;;;2.58;96.01
58761;BME280;44529;47.464;19.014;2023-02-17T00:05:40;101173.38;;;2.58;96.26
58761;BME280;44529;47.464;19.014;2023-02-17T00:08:43;101175.66;;;2.66;96.23
58761;BME280;44529;47.464;19.014;2023-02-17T00:11:45;101161.59;;;2.70;95.93
58761;BME280;44529;47.464;19.014;2023-02-17T00:14:47;101170.31;;;2.66;95.95
58761;BME280;44529;47.464;19.014;2023-02-17T00:17:50;101169.03;;;2.68;96.27
58761;BME280;44529;47.464;19.014;2023-02-17T00:20:52;101169.28;;;2.67;96.20
58761;BME280;44529;47.464;19.014;2023-02-17T00:23:56;101154.75;;;2.63;96.14
58761;BME280;44529;47.464;19.014;2023-02-17T00:26:59;101161.59;;;2.70;95.65
58761;BME280;44529;47.464;19.014;2023-02-17T00:30:02;101168.66;;;2.77;95.16
58761;BME280;44529;47.464;19.014;2023-02-17T00:33:05;101160.22;;;2.68;95.31
58761;BME280;44529;47.464;19.014;2023-02-17T00:36:11;101153.38;;;2.60;95.73
58761;BME280;44529;47.464;19.014;2023-02-17T00:39:14;101149.19;;;2.64;95.96
58761;BME280;44529;47.464;19.014;2023-02-17T00:42:18;101153.13;;;2.62;96.44
58761;BME280;44529;47.464;19.014;2023-02-17T00:45:20;101155.91;;;2.67;96.21
58761;BME280;44529;47.464;19.014;2023-02-17T00:48:22;101152.69;;;2.65;96.62
58761;BME280;44529;47.464;19.014;2023-02-17T00:51:25;101150.56;;;2.67;96.67
58761;BME280;44529;47.464;19.014;2023-02-17T00:54:28;101162.19;;;2.72;97.24
58761;BME280;44529;47.464;19.014;2023-02-17T00:57:30;101166.81;;;2.77;97.22
58761;BME280;44529;47.464;19.014;2023-02-17T01:00:33;101154.72;;;2.75;97.65
58761;BME280;44529;47.464;19.014;2023-02-17T01:03:36;101160.28;;;2.85;97.43
58761;BME280;44529;47.464;19.014;2023-02-17T01:06:39;101150.69;;;2.72;97.35
58761;BME280;44529;47.464;19.014;2023-02-17T01:09:41;101145.31;;;2.84;97.35
58761;BME280;44529;47.464;19.014;2023-02-17T01:12:44;101142.50;;;2.90;96.37
58761;BME280;44529;47.464;19.014;2023-02-17T01:15:51;101147.03;;;2.90;96.11
58761;BME280;44529;47.464;19.014;2023-02-17T01:18:55;101154.81;;;2.91;95.89
58761;BME280;44529;47.464;19.014;2023-02-17T01:21:57;101145.06;;;2.85;95.23
58761;BME280;44529;47.464;19.014;2023-02-17T01:24:59;101152.41;;;2.78;95.80
58761;BME280;44529;47.464;19.014;2023-02-17T01:28:02;101148.97;;;2.66;97.03
58761;BME280;44529;47.464;19.014;2023-02-17T01:31:06;101151.63;;;2.66;97.36
58761;BME280;44529;47.464;19.014;2023-02-17T01:34:09;101137.44;;;2.77;97.26
58761;BME280;44529;47.464;19.014;2023-02-17T01:37:12;101132.09;;;2.77;96.61
58761;BME280;44529;47.464;19.014;2023-02-17T01:40:15;101132.44;;;2.69;97.04
58761;BME280;44529;47.464;19.014;2023-02-17T01:43:18;101134.28;;;2.80;96.52
58761;BME280;44529;47.464;19.014;2023-02-17T01:46:20;101121.78;;;2.69;97.15
58761;BME280;44529;47.464;19.014;2023-02-17T01:49:31;101120.12;;;2.80;96.91
58761;BME280;44529;47.464;19.014;2023-02-17T01:52:34;101121.13;;;2.90;95.73
58761;BME280;44529;47.464;19.014;2023-02-17T01:55:38;101127.19;;;2.86;95.01
58761;BME280;44529;47.464;19.014;2023-02-17T01:58:45;101120.94;;;2.80;95.73
58761;BME280;44529;47.464;19.014;2023-02-17T02:01:50;101116.41;;;2.81;95.37
58761;BME280;44529;47.464;19.014;2023-02-17T02:04:54;101108.63;;;2.79;94.77
58761;BME280;44529;47.464;19.014;2023-02-17T02:07:56;101108.94;;;2.83;94.40
58761;BME280;44529;47.464;19.014;2023-02-17T02:10:59;101117.19;;;2.81;94.22
58761;BME280;44529;47.464;19.014;2023-02-17T02:14:02;101116.97;;;2.83;93.32
58761;BME280;44529;47.464;19.014;2023-02-17T02:20:41;101095.13;;;2.86;92.45
58761;BME280;44529;47.464;19.014;2023-02-17T02:30:57;101097.19;;;2.67;92.19
58761;BME280;44529;47.464;19.014;2023-02-17T02:34:07;101087.16;;;2.74;91.50
58761;BME280;44529;47.464;19.014;2023-02-17T02:37:16;101101.31;;;2.75;91.43
58761;BME280;44529;47.464;19.014;2023-02-17T02:40:21;101087.72;;;2.76;90.75
58761;BME280;44529;47.464;19.014;2023-02-17T02:43:25;101100.19;;;2.70;90.57
58761;BME280;44529;47.464;19.014;2023-02-17T02:46:28;101095.19;;;2.74;90.24
58761;BME280;44529;47.464;19.014;2023-02-17T02:49:32;101084.50;;;2.74;90.67
58761;BME280;44529;47.464;19.014;2023-02-17T03:02:51;101083.03;;;2.83;88.41
58761;BME280;44529;47.464;19.014;2023-02-17T03:06:25;101092.13;;;2.82;87.76
58761;BME280;44529;47.464;19.014;2023-02-17T03:09:29;101087.87;;;2.98;87.85
58761;BME280;44529;47.464;19.014;2023-02-17T03:12:32;101085.34;;;2.91;86.64
58761;BME280;44529;47.464;19.014;2023-02-17T03:15:37;101093.25;;;2.86;87.57
58761;BME280;44529;47.464;19.014;2023-02-17T03:18:40;101088.37;;;2.83;87.41
58761;BME280;44529;47.464;19.014;2023-02-17T03:25:02;101117.25;;;2.98;86.58
58761;BME280;44529;47.464;19.014;2023-02-17T03:28:05;101120.03;;;3.03;85.49
58761;BME280;44529;47.464;19.014;2023-02-17T03:31:07;101112.03;;;3.03;85.63
58761;BME280;44529;47.464;19.014;2023-02-17T03:34:10;101105.38;;;3.06;85.46
58761;BME280;44529;47.464;19.014;2023-02-17T03:37:12;101110.31;;;2.97;85.26
58761;BME280;44529;47.464;19.014;2023-02-17T03:40:15;101109.41;;;2.91;85.60
58761;BME280;44529;47.464;19.014;2023-02-17T03:43:17;101107.03;;;2.95;85.06
58761;BME280;44529;47.464;19.014;2023-02-17T03:46:19;101113.19;;;2.95;85.42
58761;BME280;44529;47.464;19.014;2023-02-17T03:49:22;101106.34;;;2.71;86.27
58761;BME280;44529;47.464;19.014;2023-02-17T03:52:24;101110.28;;;2.68;86.49
58761;BME280;44529;47.464;19.014;2023-02-17T03:55:27;101112.16;;;2.68;86.12
58761;BME280;44529;47.464;19.014;2023-02-17T03:58:29;101115.06;;;2.66;86.65
58761;BME280;44529;47.464;19.014;2023-02-17T04:01:31;101108.31;;;2.64;86.84
58761;BME280;44529;47.464;19.014;2023-02-17T04:04:34;101094.97;;;2.64;87.03
58761;BME280;44529;47.464;19.014;2023-02-17T04:07:37;101098.81;;;2.56;88.04
58761;BME280;44529;47.464;19.014;2023-02-17T04:10:39;101100.69;;;2.56;87.88
58761;BME280;44529;47.464;19.014;2023-02-17T04:13:42;101107.19;;;2.60;87.77
58761;BME280;44529;47.464;19.014;2023-02-17T04:16:44;101096.03;;;2.63;87.34
58761;BME280;44529;47.464;19.014;2023-02-17T04:19:46;101113.56;;;2.59;87.64
58761;BME280;44529;47.464;19.014;2023-02-17T04:22:49;101112.41;;;2.55;87.53
58761;BME280;44529;47.464;19.014;2023-02-17T04:25:51;101104.56;;;2.36;88.40
58761;BME280;44529;47.464;19.014;2023-02-17T04:28:54;101102.94;;;2.35;88.85
58761;BME280;44529;47.464;19.014;2023-02-17T04:31:56;101097.03;;;2.45;87.87
58761;BME280;44529;47.464;19.014;2023-02-17T04:34:59;101094.13;;;2.47;88.14
58761;BME280;44529;47.464;19.014;2023-02-17T04:38:01;101092.00;;;2.49;87.96
58761;BME280;44529;47.464;19.014;2023-02-17T04:41:04;101092.56;;;2.51;87.96
58761;BME280;44529;47.464;19.014;2023-02-17T04:44:07;101099.31;;;2.53;87.89
58761;BME280;44529;47.464;19.014;2023-02-17T04:47:09;101093.16;;;2.53;87.87
58761;BME280;44529;47.464;19.014;2023-02-17T04:50:12;101105.59;;;2.47;88.38
58761;BME280;44529;47.464;19.014;2023-02-17T04:53:15;101100.00;;;2.49;88.36
58761;BME280;44529;47.464;19.014;2023-02-17T04:56:17;101090.84;;;2.44;88.67
58761;BME280;44529;47.464;19.014;2023-02-17T04:59:20;101085.63;;;2.50;88.36
58761;BME280;44529;47.464;19.014;2023-02-17T05:02:22;101083.91;;;2.43;88.90
58761;BME280;44529;47.464;19.014;2023-02-17T05:05:24;101092.56;;;2.51;88.79
58761;BME280;44529;47.464;19.014;2023-02-17T05:08:27;101106.62;;;2.58;88.44
58761;BME280;44529;47.464;19.014;2023-02-17T05:11:29;101095.69;;;2.59;88.23
58761;BME280;44529;47.464;19.014;2023-02-17T05:14:32;101099.19;;;2.60;88.30
58761;BME280;44529;47.464;19.014;2023-02-17T05:17:35;101103.12;;;2.57;88.53
58761;BME280;44529;47.464;19.014;2023-02-17T05:20:37;101101.50;;;2.56;88.98
58761;BME280;44529;47.464;19.014;2023-02-17T05:23:39;101110.09;;;2.58;88.98
58761;BME280;44529;47.464;19.014;2023-02-17T05:26:42;101101.47;;;2.68;88.31
58761;BME280;44529;47.464;19.014;2023-02-17T05:29:45;101101.47;;;2.68;88.38
58761;BME280;44529;47.464;19.014;2023-02-17T05:32:47;101099.34;;;2.70;87.65
58761;BME280;44529;47.464;19.014;2023-02-17T05:35:49;101099.06;;;2.83;87.15
58761;BME280;44529;47.464;19.014;2023-02-17T05:38:51;101101.19;;;2.81;87.27
58761;BME280;44529;47.464;19.014;2023-02-17T05:41:54;101104.41;;;2.83;86.83
58761;BME280;44529;47.464;19.014;2023-02-17T05:44:57;101104.56;;;2.77;87.66
58761;BME280;44529;47.464;19.014;2023-02-17T05:48:00;101101.87;;;2.77;87.77
58761;BME280;44529;47.464;19.014;2023-02-17T05:51:02;101099.75;;;2.90;87.37
58761;BME280;44529;47.464;19.014;2023-02-17T05:54:05;101100.88;;;2.94;87.25
58761;BME280;44529;47.464;19.014;2023-02-17T05:57:07;101112.72;;;2.98;87.19
58761;BME280;44529;47.464;19.014;2023-02-17T06:00:10;101101.09;;;3.05;86.61
58761;BME280;44529;47.464;19.014;2023-02-17T06:03:13;101093.97;;;3.10;86.22
58761;BME280;44529;47.464;19.014;2023-02-17T06:06:16;101099.97;;;3.17;86.72
58761;BME280;44529;47.464;19.014;2023-02-17T06:09:18;101089.38;;;3.22;86.86
58761;BME280;44529;47.464;19.014;2023-02-17T06:12:21;101090.75;;;3.25;86.81
58761;BME280;44529;47.464;19.014;2023-02-17T06:15:26;101100.47;;;3.31;86.62
58761;BME280;44529;47.464;19.014;2023-02-17T06:18:28;101091.22;;;3.39;86.04
58761;BME280;44529;47.464;19.014;2023-02-17T06:21:31;101110.84;;;3.44;85.40
58761;BME280;44529;47.464;19.014;2023-02-17T06:24:33;101115.94;;;3.46;85.03
58761;BME280;44529;47.464;19.014;2023-02-17T06:27:35;101122.44;;;3.50;84.94
58761;BME280;44529;47.464;19.014;2023-02-17T06:30:38;101127.53;;;3.51;84.87
58761;BME280;44529;47.464;19.014;2023-02-17T06:33:40;101133.28;;;3.60;84.03
58761;BME280;44529;47.464;19.014;2023-02-17T06:36:42;101125.09;;;3.67;84.01
58761;BME280;44529;47.464;19.014;2023-02-17T06:39:45;101120.41;;;3.74;83.95
58761;BME280;44529;47.464;19.014;2023-02-17T06:42:47;101126.16;;;3.83;83.85
58761;BME280;44529;47.464;19.014;2023-02-17T06:45:49;101126.97;;;3.83;84.07
58761;BME280;44529;47.464;19.014;2023-02-17T06:48:52;101134.19;;;3.83;83.99
58761;BME280;44529;47.464;19.014;2023-02-17T06:51:54;101143.56;;;3.85;84.04
58761;BME280;44529;47.464;19.014;2023-02-17T06:54:57;101134.31;;;3.93;84.00
58761;BME280;44529;47.464;19.014;2023-02-17T06:57:59;101125.56;;;3.97;83.52
58761;BME280;44529;47.464;19.014;2023-02-17T07:01:02;101116.81;;;4.02;83.71
58761;BME280;44529;47.464;19.014;2023-02-17T07:04:05;101135.44;;;3.97;84.40
58761;BME280;44529;47.464;19.014;2023-02-17T07:07:08;101126.25;;;4.10;83.89
58761;BME280;44529;47.464;19.014;2023-02-17T07:10:11;101123.78;;;4.25;82.79
58761;BME280;44529;47.464;19.014;2023-02-17T07:13:13;101120.63;;;4.28;82.29
58761;BME280;44529;47.464;19.014;2023-02-17T07:16:16;101128.03;;;4.21;83.23
58761;BME280;44529;47.464;19.014;2023-02-17T07:19:18;101127.69;;;4.17;83.20
58761;BME280;44529;47.464;19.014;2023-02-17T07:22:21;101129.72;;;4.27;83.17
58761;BME280;44529;47.464;19.014;2023-02-17T07:25:26;101131.72;;;4.37;82.35
58761;BME280;44529;47.464;19.014;2023-02-17T07:28:29;101127.50;;;4.41;82.10
58761;BME280;44529;47.464;19.014;2023-02-17T07:31:32;101127.75;;;4.39;82.69
58761;BME280;44529;47.464;19.014;2023-02-17T07:34:34;101127.22;;;4.42;82.21
58761;BME280;44529;47.464;19.014;2023-02-17T07:37:36;101120.06;;;4.48;81.79
58761;BME280;44529;47.464;19.014;2023-02-17T07:40:39;101115.03;;;4.51;82.23
58761;BME280;44529;47.464;19.014;2023-02-17T07:43:42;101118.34;;;4.58;82.44
58761;BME280;44529;47.464;19.014;2023-02-17T07:46:44;101112.59;;;4.72;81.91
58761;BME280;44529;47.464;19.014;2023-02-17T07:49:47;101113.16;;;4.74;81.16
58761;BME280;44529;47.464;19.014;2023-02-17T07:52:49;101110.53;;;4.79;81.41
58761;BME280;44529;47.464;19.014;2023-02-17T07:55:52;101097.75;;;4.86;80.90
58761;BME280;44529;47.464;19.014;2023-02-17T07:58:54;101110.22;;;5.02;81.24
58761;BME280;44529;47.464;19.014;2023-02-17T08:01:57;101111.19;;;5.18;80.15
58761;BME280;44529;47.464;19.014;2023-02-17T08:04:59;101103.97;;;5.19;80.19
58761;BME280;44529;47.464;19.014;2023-02-17T08:08:01;101098.44;;;5.30;79.47
58761;BME280;44529;47.464;19.014;2023-02-17T08:11:23;101098.28;;;5.42;79.54
58761;BME280;44529;47.464;19.014;2023-02-17T08:14:46;101101.87;;;5.58;79.01
58761;BME280;44529;47.464;19.014;2023-02-17T08:17:48;101107.09;;;5.75;77.57
58761;BME280;44529;47.464;19.014;2023-02-17T08:20:52;101108.22;;;5.84;77.64
58761;BME280;44529;47.464;19.014;2023-02-17T08:23:54;101114.31;;;6.06;77.68
58761;BME280;44529;47.464;19.014;2023-02-17T08:26:56;101122.44;;;6.21;77.39
58761;BME280;44529;47.464;19.014;2023-02-17T08:29:59;101125.75;;;6.44;75.90
58761;BME280;44529;47.464;19.014;2023-02-17T08:33:01;101132.28;;;6.63;75.06
58761;BME280;44529;47.464;19.014;2023-02-17T08:36:05;101133.41;;;6.72;73.20
58761;BME280;44529;47.464;19.014;2023-02-17T08:39:14;101119.47;;;6.81;71.90
58761;BME280;44529;47.464;19.014;2023-02-17T08:42:17;101119.00;;;7.04;70.51
58761;BME280;44529;47.464;19.014;2023-02-17T08:45:19;101119.53;;;7.26;69.33
58761;BME280;44529;47.464;19.014;2023-02-17T08:48:21;101119.00;;;7.40;68.98
58761;BME280;44529;47.464;19.014;2023-02-17T08:51:24;101117.69;;;7.47;68.13
58761;BME280;44529;47.464;19.014;2023-02-17T08:54:27;101109.88;;;7.56;67.90
58761;BME280;44529;47.464;19.014;2023-02-17T08:57:30;101104.75;;;7.70;66.82
58761;BME280;44529;47.464;19.014;2023-02-17T09:00:32;101104.19;;;7.78;65.90
58761;BME280;44529;47.464;19.014;2023-02-17T09:03:35;101116.28;;;7.91;65.42
58761;BME280;44529;47.464;19.014;2023-02-17T09:06:47;101117.91;;;8.02;63.86
58761;BME280;44529;47.464;19.014;2023-02-17T09:09:50;101123.50;;;8.15;63.75
58761;BME280;44529;47.464;19.014;2023-02-17T09:12:53;101121.34;;;8.23;63.40
58761;BME280;44529;47.464;19.014;2023-02-17T09:15:55;101112.41;;;8.43;64.12
58761;BME280;44529;47.464;19.014;2023-02-17T09:18:58;101114.97;;;8.73;60.62
58761;BME280;44529;47.464;19.014;2023-02-17T09:22:00;101112.13;;;8.99;59.55
58761;BME280;44529;47.464;19.014;2023-02-17T09:25:04;101104.66;;;9.30;58.83
58761;BME280;44529;47.464;19.014;2023-02-17T09:28:06;101105.31;;;9.45;57.90
58761;BME280;44529;47.464;19.014;2023-02-17T09:34:14;101103.53;;;9.94;56.33
58761;BME280;44529;47.464;19.014;2023-02-17T09:37:17;101100.44;;;10.06;56.00
58761;BME280;44529;47.464;19.014;2023-02-17T09:40:25;101105.50;;;9.88;56.32
58761;BME280;44529;47.464;19.014;2023-02-17T09:43:30;101100.88;;;9.89;56.25
58761;BME280;44529;47.464;19.014;2023-02-17T09:46:41;101107.09;;;9.89;55.79
58761;BME280;44529;47.464;19.014;2023-02-17T09:50:05;101111.87;;;9.97;55.97
58761;BME280;44529;47.464;19.014;2023-02-17T09:53:18;101102.69;;;9.98;56.90
58761;BME280;44529;47.464;19.014;2023-02-17T09:56:30;101100.38;;;9.87;56.74
58761;BME280;44529;47.464;19.014;2023-02-17T09:59:43;101098.13;;;9.94;57.12
58761;BME280;44529;47.464;19.014;2023-02-17T10:06:25;101090.31;;;9.92;56.30
58761;BME280;44529;47.464;19.014;2023-02-17T10:09:35;101085.72;;;9.93;56.88
58761;BME280;44529;47.464;19.014;2023-02-17T10:12:48;101073.41;;;9.82;57.56
58761;BME280;44529;47.464;19.014;2023-02-17T10:15:52;101067.50;;;9.80;57.85
58761;BME280;44529;47.464;19.014;2023-02-17T10:19:00;101066.19;;;9.72;57.86
58761;BME280;44529;47.464;19.014;2023-02-17T10:22:19;101057.75;;;9.78;58.11
58761;BME280;44529;47.464;19.014;2023-02-17T10:25:46;101071.94;;;9.94;58.20
58761;BME280;44529;47.464;19.014;2023-02-17T10:29:23;101053.22;;;9.98;58.44
58761;BME280;44529;47.464;19.014;2023-02-17T10:32:44;101045.47;;;9.91;58.00
58761;BME280;44529;47.464;19.014;2023-02-17T10:35:58;101049.38;;;10.04;58.69
58761;BME280;44529;47.464;19.014;2023-02-17T10:39:22;101045.25;;;10.12;59.93
58761;BME280;44529;47.464;19.014;2023-02-17T10:42:33;101050.31;;;10.18;60.75
58761;BME280;44529;47.464;19.014;2023-02-17T10:48:49;101042.25;;;9.89;61.60
58761;BME280;44529;47.464;19.014;2023-02-17T10:52:00;101031.44;;;9.89;62.10
58761;BME280;44529;47.464;19.014;2023-02-17T10:55:20;101043.09;;;9.85;61.05
58761;BME280;44529;47.464;19.014;2023-02-17T10:58:30;101028.25;;;9.87;62.03
58761;BME280;44529;47.464;19.014;2023-02-17T11:01:35;101026.84;;;9.90;61.40
58761;BME280;44529;47.464;19.014;2023-02-17T11:04:41;101025.41;;;9.97;61.50
58761;BME280;44529;47.464;19.014;2023-02-17T11:07:44;101028.31;;;10.06;61.49
58761;BME280;44529;47.464;19.014;2023-02-17T11:11:01;101021.44;;;10.14;60.33
58761;BME280;44529;47.464;19.014;2023-02-17T11:14:17;101017.19;;;10.08;60.19
58761;BME280;44529;47.464;19.014;2023-02-17T11:17:29;101015.44;;;10.17;59.70
58761;BME280;44529;47.464;19.014;2023-02-17T11:20:33;101007.19;;;10.32;59.58
58761;BME280;44529;47.464;19.014;2023-02-17T11:30:14;100990.63;;;10.39;59.30
58761;BME280;44529;47.464;19.014;2023-02-17T11:33:29;100981.69;;;10.38;59.69
58761;BME280;44529;47.464;19.014;2023-02-17T11:36:32;100982.44;;;10.44;59.09
58761;BME280;44529;47.464;19.014;2023-02-17T11:39:42;100972.63;;;10.48;58.92
58761;BME280;44529;47.464;19.014;2023-02-17T11:42:56;100969.84;;;10.53;58.48
58761;BME280;44529;47.464;19.014;2023-02-17T11:46:10;100972.69;;;10.43;59.55
58761;BME280;44529;47.464;19.014;2023-02-17T12:09:02;100950.00;;;10.44;59.31
58761;BME280;44529;47.464;19.014;2023-02-17T12:25:27;100918.63;;;10.24;63.31
58761;BME280;44529;47.464;19.014;2023-02-17T12:29:01;100915.84;;;10.29;63.06
58761;BME280;44529;47.464;19.014;2023-02-17T12:35:46;100907.59;;;10.20;64.93
58761;BME280;44529;47.464;19.014;2023-02-17T12:38:54;100922.66;;;10.26;64.78
58761;BME280;44529;47.464;19.014;2023-02-17T12:45:23;100922.78;;;10.54;64.68
58761;BME280;44529;47.464;19.014;2023-02-17T12:49:19;100915.44;;;10.73;65.16
58761;BME280;44529;47.464;19.014;2023-02-17T12:52:43;100912.28;;;10.85;65.31
58761;BME280;44529;47.464;19.014;2023-02-17T12:55:52;100904.50;;;10.97;64.05
58761;BME280;44529;47.464;19.014;2023-02-17T12:59:09;100913.81;;;11.05;63.46
58761;BME280;44529;47.464;19.014;2023-02-17T13:02:15;100910.63;;;11.17;63.12
58761;BME280;44529;47.464;19.014;2023-02-17T13:05:26;100906.53;;;11.19;62.95
58761;BME280;44529;47.464;19.014;2023-02-17T13:11:35;100904.03;;;11.23;63.40
58761;BME280;44529;47.464;19.014;2023-02-17T13:14:40;100896.00;;;11.18;63.94
58761;BME280;44529;47.464;19.014;2023-02-17T13:17:58;100895.69;;;11.19;64.40
58761;BME280;44529;47.464;19.014;2023-02-17T13:24:38;100894.47;;;11.11;68.49
58761;BME280;44529;47.464;19.014;2023-02-17T13:27:51;100907.50;;;10.96;70.25
58761;BME280;44529;47.464;19.014;2023-02-17T13:30:55;100905.88;;;10.95;71.46
58761;BME280;44529;47.464;19.014;2023-02-17T13:34:01;100895.16;;;10.90;70.31
58761;BME280;44529;47.464;19.014;2023-02-17T13:40:33;100891.25;;;10.82;72.51
58761;BME280;44529;47.464;19.014;2023-02-17T13:43:41;100896.81;;;10.72;71.71
58761;BME280;44529;47.464;19.014;2023-02-17T13:46:44;100892.22;;;10.86;71.47
58761;BME280;44529;47.464;19.014;2023-02-17T13:49:51;100870.50;;;10.91;71.79
58761;BME280;44529;47.464;19.014;2023-02-17T13:52:55;100872.91;;;10.93;72.92
58761;BME280;44529;47.464;19.014;2023-02-17T13:56:03;100871.72;;;10.99;71.90
58761;BME280;44529;47.464;19.014;2023-02-17T13:59:13;100863.28;;;11.00;72.59
58761;BME280;44529;47.464;19.014;2023-02-17T14:02:20;100859.19;;;11.03;71.92
58761;BME280;44529;47.464;19.014;2023-02-17T14:05:42;100859.78;;;11.13;71.52
58761;BME280;44529;47.464;19.014;2023-02-17T14:08:44;100854.81;;;11.21;70.85
58761;BME280;44529;47.464;19.014;2023-02-17T14:11:48;100851.59;;;11.19;70.96
58761;BME280;44529;47.464;19.014;2023-02-17T14:14:52;100850.37;;;11.25;70.67
58761;BME280;44529;47.464;19.014;2023-02-17T14:17:57;100844.97;;;11.25;70.45
58761;BME280;44529;47.464;19.014;2023-02-17T14:21:24;100853.31;;;11.28;70.85
58761;BME280;44529;47.464;19.014;2023-02-17T14:24:35;100846.06;;;11.10;72.46
58761;BME280;44529;47.464;19.014;2023-02-17T14:27:45;100849.97;;;11.04;71.31
58761;BME280;44529;47.464;19.014;2023-02-17T14:30:51;100842.56;;;11.09;71.31
58761;BME280;44529;47.464;19.014;2023-02-17T14:34:01;100840.44;;;11.06;71.78
58761;BME280;44529;47.464;19.014;2023-02-17T14:37:23;100830.72;;;11.05;71.59
58761;BME280;44529;47.464;19.014;2023-02-17T14:40:26;100842.56;;;10.96;72.82
58761;BME280;44529;47.464;19.014;2023-02-17T14:43:31;100833.66;;;10.95;71.58
58761;BME280;44529;47.464;19.014;2023-02-17T14:46:37;100842.66;;;10.91;72.31
58761;BME280;44529;47.464;19.014;2023-02-17T14:49:44;100840.91;;;10.81;71.74
58761;BME280;44529;47.464;19.014;2023-02-17T14:52:49;100836.13;;;10.78;71.43
58761;BME280;44529;47.464;19.014;2023-02-17T14:56:40;100828.19;;;10.81;71.35
58761;BME280;44529;47.464;19.014;2023-02-17T14:59:22;100829.28;;;10.80;70.29
58761;BME280;44529;47.464;19.014;2023-02-17T15:02:24;100823.28;;;10.70;71.09
58761;BME280;44529;47.464;19.014;2023-02-17T15:05:26;100816.47;;;10.72;70.83
58761;BME280;44529;47.464;19.014;2023-02-17T15:08:32;100806.66;;;10.76;69.77
58761;BME280;44529;47.464;19.014;2023-02-17T15:11:35;100809.47;;;10.71;70.61
58761;BME280;44529;47.464;19.014;2023-02-17T15:14:38;100798.63;;;10.71;70.76
58761;BME280;44529;47.464;19.014;2023-02-17T15:17:41;100807.13;;;10.65;70.67
58761;BME280;44529;47.464;19.014;2023-02-17T15:20:45;100798.63;;;10.57;71.21
58761;BME280;44529;47.464;19.014;2023-02-17T15:23:48;100796.41;;;10.60;70.55
58761;BME280;44529;47.464;19.014;2023-02-17T15:26:50;100790.41;;;10.63;71.06
58761;BME280;44529;47.464;19.014;2023-02-17T15:29:53;100792.59;;;10.61;71.11
58761;BME280;44529;47.464;19.014;2023-02-17T15:32:55;100787.59;;;10.54;71.41
58761;BME280;44529;47.464;19.014;2023-02-17T15:35:57;100783.66;;;10.46;71.54
58761;BME280;44529;47.464;19.014;2023-02-17T15:39:00;100781.56;;;10.43;70.91
58761;BME280;44529;47.464;19.014;2023-02-17T15:42:05;100782.37;;;10.44;70.86
58761;BME280;44529;47.464;19.014;2023-02-17T15:45:15;100776.75;;;10.40;70.77
58761;BME280;44529;47.464;19.014;2023-02-17T15:48:26;100787.06;;;10.38;71.11
58761;BME280;44529;47.464;19.014;2023-02-17T15:51:31;100788.34;;;10.41;70.54
58761;BME280;44529;47.464;19.014;2023-02-17T15:54:33;100800.03;;;10.36;70.56
58761;BME280;44529;47.464;19.014;2023-02-17T15:57:36;100804.97;;;10.34;70.80
58761;BME280;44529;47.464;19.014;2023-02-17T16:00:41;100809.87;;;10.32;71.39
58761;BME280;44529;47.464;19.014;2023-02-17T16:03:47;100810.25;;;10.25;71.48
58761;BME280;44529;47.464;19.014;2023-02-17T16:06:49;100804.53;;;10.27;71.01
58761;BME280;44529;47.464;19.014;2023-02-17T16:09:52;100784.00;;;10.26;70.87
58761;BME280;44529;47.464;19.014;2023-02-17T16:12:56;100781.50;;;10.29;70.71
58761;BME280;44529;47.464;19.014;2023-02-17T16:15:59;100789.91;;;10.28;70.78
58761;BME280;44529;47.464;19.014;2023-02-17T16:19:01;100784.31;;;10.24;70.91
58761;BME280;44529;47.464;19.014;2023-02-17T16:22:04;100777.56;;;10.22;71.01
58761;BME280;44529;47.464;19.014;2023-02-17T16:25:06;100777.34;;;10.18;71.73
58761;BME280;44529;47.464;19.014;2023-02-17T16:28:20;100772.59;;;10.10;72.10
58761;BME280;44529;47.464;19.014;2023-02-17T16:31:22;100777.81;;;10.07;72.31
58761;BME280;44529;47.464;19.014;2023-02-17T16:34:25;100770.50;;;10.07;72.40
58761;BME280;44529;47.464;19.014;2023-02-17T16:37:27;100787.81;;;10.06;73.00
58761;BME280;44529;47.464;19.014;2023-02-17T16:40:31;100782.56;;;9.96;73.82
58761;BME280;44529;47.464;19.014;2023-02-17T16:43:34;100771.34;;;9.89;73.29
58761;BME280;44529;47.464;19.014;2023-02-17T16:46:37;100772.19;;;9.84;73.46
58761;BME280;44529;47.464;19.014;2023-02-17T16:49:45;100763.00;;;9.85;73.33
58761;BME280;44529;47.464;19.014;2023-02-17T16:52:49;100766.06;;;9.78;73.62
58761;BME280;44529;47.464;19.014;2023-02-17T16:55:53;100758.81;;;9.79;73.62
58761;BME280;44529;47.464;19.014;2023-02-17T16:58:56;100755.87;;;9.75;73.62
58761;BME280;44529;47.464;19.014;2023-02-17T17:01:58;100746.66;;;9.76;73.69
58761;BME280;44529;47.464;19.014;2023-02-17T17:05:02;100745.37;;;9.74;73.71
58761;BME280;44529;47.464;19.014;2023-02-17T17:08:05;100745.66;;;9.72;73.82
58761;BME280;44529;47.464;19.014;2023-02-17T17:11:13;100749.25;;;9.68;74.00
58761;BME280;44529;47.464;19.014;2023-02-17T17:14:16;100749.75;;;9.70;74.15
58761;BME280;44529;47.464;19.014;2023-02-17T17:17:19;100748.50;;;9.62;74.15
58761;BME280;44529;47.464;19.014;2023-02-17T17:20:24;100734.78;;;9.59;74.22
58761;BME280;44529;47.464;19.014;2023-02-17T17:23:32;100745.13;;;9.52;74.55
58761;BME280;44529;47.464;19.014;2023-02-17T17:26:40;100720.66;;;9.48;74.73
58761;BME280;44529;47.464;19.014;2023-02-17T17:29:45;100723.91;;;9.45;74.99
58761;BME280;44529;47.464;19.014;2023-02-17T17:32:47;100721.50;;;9.43;75.11
58761;BME280;44529;47.464;19.014;2023-02-17T17:35:51;100729.91;;;9.42;75.23
58761;BME280;44529;47.464;19.014;2023-02-17T17:38:54;100728.56;;;9.39;75.38